Time;durP1;ratioP1;P1;durP2;ratioP2;P2;SDS_P1;SDS_P2;PMS_P1;PMS_P2;Temp;Humidity;BMP_temperature;BMP_pressure;BME280_temperature;BME280_humidity;BME280_pressure;Samples;Min_cycle;Max_cycle;Signal;HPM_P1;HPM_P2
2023/07/13 00:02:15;;;;;;;4.15;3.30;;;19.00;99.90;;;;;;4997653;28;20181;-86
2023/07/13 00:04:41;;;;;;;7.85;5.05;;;19.10;99.90;;;;;;4997561;28;20209;-86
2023/07/13 00:07:08;;;;;;;5.50;4.13;;;19.10;99.90;;;;;;4980323;28;20186;-86
2023/07/13 00:09:34;;;;;;;4.03;3.55;;;19.10;99.90;;;;;;4997800;28;20189;-86
2023/07/13 00:12:01;;;;;;;7.10;4.20;;;19.10;99.90;;;;;;5002085;28;20186;-86
2023/07/13 00:14:28;;;;;;;6.07;4.40;;;19.20;99.90;;;;;;5004200;28;20213;-85
2023/07/13 00:16:55;;;;;;;4.50;3.33;;;19.20;99.90;;;;;;5000984;28;20701;-85
2023/07/13 00:19:20;;;;;;;5.53;4.45;;;19.20;99.90;;;;;;4996457;28;20192;-86
2023/07/13 00:21:46;;;;;;;4.35;3.60;;;19.10;99.90;;;;;;5001227;28;20170;-86
2023/07/13 00:24:15;;;;;;;5.05;3.90;;;19.10;99.90;;;;;;5006650;28;20689;-86
2023/07/13 00:26:45;;;;;;;7.47;3.80;;;19.10;99.90;;;;;;5008300;28;20174;-86
2023/07/13 00:29:11;;;;;;;4.63;3.80;;;19.10;99.90;;;;;;4980216;28;20189;-86
2023/07/13 00:31:37;;;;;;;4.82;3.35;;;19.10;99.90;;;;;;4979579;28;20182;-87
2023/07/13 00:34:03;;;;;;;5.35;3.80;;;19.00;99.90;;;;;;4994767;28;20270;-87
2023/07/13 00:36:30;;;;;;;5.40;3.45;;;19.00;99.90;;;;;;4995818;28;20188;-87
2023/07/13 00:38:56;;;;;;;9.80;4.07;;;19.00;99.90;;;;;;4996145;28;20186;-87
2023/07/13 00:41:22;;;;;;;4.93;3.67;;;19.00;99.90;;;;;;4994929;28;20189;-87
2023/07/13 00:43:47;;;;;;;4.35;3.78;;;18.90;99.90;;;;;;4996096;28;20580;-87
2023/07/13 00:46:19;;;;;;;14.65;3.70;;;18.90;99.90;;;;;;4995054;28;20178;-86
2023/07/13 00:48:47;;;;;;;4.70;3.70;;;18.90;99.90;;;;;;4995034;28;20272;-87
2023/07/13 00:51:15;;;;;;;5.25;3.90;;;18.80;99.90;;;;;;4994650;28;20269;-87
2023/07/13 00:53:41;;;;;;;4.82;3.78;;;18.80;99.90;;;;;;4996010;28;20193;-87
2023/07/13 00:56:07;;;;;;;4.30;3.80;;;18.80;99.90;;;;;;4994334;28;20177;-87
2023/07/13 00:58:33;;;;;;;11.80;4.20;;;18.80;99.90;;;;;;4994782;28;20201;-86
2023/07/13 01:00:59;;;;;;;10.10;3.95;;;18.70;99.90;;;;;;4994322;28;20252;-87
2023/07/13 01:03:24;;;;;;;8.20;3.90;;;18.70;99.90;;;;;;4997286;28;20674;-86
2023/07/13 01:05:51;;;;;;;6.78;4.47;;;18.70;99.90;;;;;;4994599;28;20280;-86
2023/07/13 01:08:17;;;;;;;5.53;3.70;;;18.60;99.90;;;;;;4999714;28;20208;-85
2023/07/13 01:10:57;;;;;;;6.03;4.20;;;18.60;99.90;;;;;;5019137;28;20174;-85
2023/07/13 01:13:23;;;;;;;6.97;4.57;;;18.30;99.90;;;;;;5008318;28;20205;-86
2023/07/13 01:15:52;;;;;;;4.05;3.35;;;18.60;99.90;;;;;;4994694;28;20289;-86
2023/07/13 01:18:25;;;;;;;5.30;3.90;;;18.60;99.90;;;;;;4995411;28;20185;-86
2023/07/13 01:20:59;;;;;;;5.47;4.05;;;18.60;99.90;;;;;;4994414;28;20186;-86
2023/07/13 01:23:26;;;;;;;7.88;4.22;;;18.60;99.90;;;;;;4995649;28;20289;-87
2023/07/13 01:25:52;;;;;;;12.63;4.03;;;18.60;99.90;;;;;;4995725;28;20260;-86
2023/07/13 01:28:19;;;;;;;5.13;4.05;;;18.50;99.90;;;;;;4995461;28;20177;-86
2023/07/13 01:30:46;;;;;;;6.35;4.22;;;18.50;99.90;;;;;;4995629;28;20181;-87
2023/07/13 01:33:14;;;;;;;9.43;4.90;;;18.50;99.90;;;;;;4977633;28;20240;-86
2023/07/13 01:35:40;;;;;;;6.38;3.83;;;18.40;99.90;;;;;;4993624;28;20655;-87
2023/07/13 01:38:05;;;;;;;6.35;4.72;;;18.40;99.90;;;;;;4994091;28;20193;-86
2023/07/13 01:40:31;;;;;;;6.93;4.75;;;18.40;99.90;;;;;;4978925;28;20546;-86
2023/07/13 01:42:58;;;;;;;5.63;4.53;;;18.40;99.90;;;;;;4995147;28;20192;-86
2023/07/13 01:45:24;;;;;;;5.50;4.53;;;18.40;99.90;;;;;;4995591;28;20679;-86
2023/07/13 01:47:49;;;;;;;6.68;4.80;;;18.40;99.90;;;;;;5009766;28;20308;-85
2023/07/13 01:50:15;;;;;;;10.27;4.95;;;18.30;99.90;;;;;;5014037;28;20249;-85
2023/07/13 01:52:41;;;;;;;8.95;4.45;;;18.30;99.90;;;;;;5005167;28;20350;-86
2023/07/13 01:55:08;;;;;;;6.78;4.38;;;18.30;99.90;;;;;;4994626;28;20268;-86
2023/07/13 01:57:33;;;;;;;5.95;4.68;;;18.30;99.90;;;;;;4994935;28;20166;-87
2023/07/13 01:59:59;;;;;;;8.98;4.53;;;18.30;99.90;;;;;;4993312;28;20557;-87
2023/07/13 02:02:25;;;;;;;8.85;4.70;;;18.30;99.90;;;;;;4994308;28;20201;-86
2023/07/13 02:04:50;;;;;;;7.05;4.53;;;18.20;99.90;;;;;;4976973;28;20314;-86
2023/07/13 02:07:16;;;;;;;7.38;5.05;;;18.20;99.90;;;;;;4992905;28;20177;-86
2023/07/13 02:09:42;;;;;;;6.38;4.65;;;18.20;99.90;;;;;;4993371;28;20600;-86
2023/07/13 02:12:08;;;;;;;8.63;4.60;;;18.20;99.90;;;;;;4994614;28;20224;-87
2023/07/13 02:14:33;;;;;;;6.68;4.75;;;18.10;99.90;;;;;;4993676;28;20186;-86
2023/07/13 02:16:59;;;;;;;7.32;4.88;;;18.10;99.90;;;;;;4976997;28;20223;-86
2023/07/13 02:19:25;;;;;;;10.25;4.82;;;18.10;99.90;;;;;;4976683;28;20220;-87
2023/07/13 02:21:51;;;;;;;8.95;4.97;;;18.10;99.90;;;;;;4993319;28;20178;-87
2023/07/13 02:24:17;;;;;;;8.48;5.00;;;18.10;99.90;;;;;;4992767;28;20225;-87
2023/07/13 02:26:43;;;;;;;8.00;4.53;;;18.10;99.90;;;;;;4993345;28;20180;-87
2023/07/13 02:29:09;;;;;;;5.53;4.35;;;18.10;99.90;;;;;;4993709;28;20188;-87
2023/07/13 02:31:35;;;;;;;7.53;4.60;;;18.10;99.90;;;;;;4994679;28;20637;-87
2023/07/13 02:34:02;;;;;;;8.43;5.43;;;18.10;99.90;;;;;;4995078;28;20190;-87
2023/07/13 02:36:28;;;;;;;8.82;5.63;;;18.20;99.90;;;;;;4993986;28;20185;-88
2023/07/13 02:38:54;;;;;;;10.45;4.97;;;18.20;99.90;;;;;;4993747;28;20244;-87
2023/07/13 02:41:20;;;;;;;9.90;4.65;;;18.20;99.90;;;;;;4992802;28;20178;-88
2023/07/13 02:43:46;;;;;;;5.20;3.90;;;18.20;99.90;;;;;;4992469;28;20319;-87
2023/07/13 02:46:11;;;;;;;7.15;4.82;;;18.20;99.90;;;;;;4991598;28;20221;-88
2023/07/13 02:48:38;;;;;;;11.07;4.70;;;18.20;99.90;;;;;;5001510;28;20201;-86
2023/07/13 02:51:05;;;;;;;13.35;4.65;;;18.10;99.90;;;;;;5015813;28;20194;-86
2023/07/13 02:53:31;;;;;;;6.07;4.72;;;18.10;99.90;;;;;;5013538;28;20201;-87
2023/07/13 02:55:56;;;;;;;7.40;4.47;;;18.20;99.90;;;;;;4992873;28;20729;-87
2023/07/13 02:58:22;;;;;;;7.13;4.90;;;18.20;99.90;;;;;;4993571;28;20274;-86
2023/07/13 03:00:49;;;;;;;7.45;5.40;;;18.10;99.90;;;;;;4993037;28;20529;-86
2023/07/13 03:03:16;;;;;;;12.55;4.95;;;18.20;99.90;;;;;;4992498;28;20246;-87
2023/07/13 03:05:44;;;;;;;5.72;4.43;;;18.20;99.90;;;;;;4993967;28;20185;-87
2023/07/13 03:08:11;;;;;;;6.55;4.82;;;18.20;99.90;;;;;;4994412;28;20186;-87
2023/07/13 03:10:39;;;;;;;9.65;4.70;;;16.80;99.90;;;;;;4992766;28;20265;-87
2023/07/13 03:13:05;;;;;;;9.75;5.03;;;18.20;99.90;;;;;;4992690;28;20540;-86
2023/07/13 03:15:31;;;;;;;6.93;4.78;;;18.30;99.90;;;;;;4993394;28;20563;-87
2023/07/13 03:17:57;;;;;;;8.40;4.97;;;18.40;99.90;;;;;;4993502;28;20228;-87
2023/07/13 03:20:23;;;;;;;6.60;5.00;;;18.40;99.90;;;;;;4992279;28;20178;-87
2023/07/13 03:22:48;;;;;;;7.13;5.13;;;18.40;99.90;;;;;;4993875;28;20631;-88
2023/07/13 03:25:14;;;;;;;10.23;5.15;;;18.30;99.90;;;;;;4993460;28;20686;-87
2023/07/13 03:27:40;;;;;;;10.43;4.97;;;18.30;99.90;;;;;;4992518;28;20186;-87
2023/07/13 03:30:06;;;;;;;6.50;4.85;;;18.30;99.90;;;;;;4993843;28;20178;-87
2023/07/13 03:32:32;;;;;;;11.93;5.95;;;18.40;99.90;;;;;;4992074;28;20272;-86
2023/07/13 03:34:58;;;;;;;7.25;5.38;;;18.50;99.90;;;;;;4992166;28;20190;-86
2023/07/13 03:37:24;;;;;;;7.00;5.03;;;18.50;99.90;;;;;;4975953;28;20531;-85
2023/07/13 03:39:50;;;;;;;7.97;5.80;;;18.60;99.90;;;;;;4993640;28;20582;-85
2023/07/13 03:42:15;;;;;;;8.68;6.13;;;18.60;99.90;;;;;;4992133;28;20181;-86
2023/07/13 03:44:45;;;;;;;7.82;5.72;;;18.70;99.90;;;;;;4992027;28;20694;-85
2023/07/13 03:47:11;;;;;;;10.07;5.88;;;18.60;99.90;;;;;;4993924;28;20213;-87
2023/07/13 03:49:37;;;;;;;8.38;5.30;;;18.60;99.90;;;;;;4993250;28;20202;-86
2023/07/13 03:52:03;;;;;;;16.45;6.03;;;18.60;99.90;;;;;;4976128;28;20186;-86
2023/07/13 03:54:29;;;;;;;9.68;5.47;;;18.60;99.90;;;;;;4991759;28;20182;-86
2023/07/13 03:56:55;;;;;;;9.27;5.88;;;18.60;99.90;;;;;;4976555;28;20635;-86
2023/07/13 03:59:20;;;;;;;11.38;6.05;;;18.70;99.90;;;;;;4996880;28;20182;-87
2023/07/13 04:01:46;;;;;;;11.98;7.22;;;18.70;99.90;;;;;;4996967;28;20178;-86
2023/07/13 04:04:12;;;;;;;10.05;6.20;;;18.80;99.90;;;;;;4997012;28;20729;-86
2023/07/13 04:06:38;;;;;;;13.82;7.65;;;18.90;99.90;;;;;;4979143;28;20190;-86
2023/07/13 04:09:05;;;;;;;12.98;7.45;;;19.00;99.90;;;;;;4995686;28;20201;-86
2023/07/13 04:11:32;;;;;;;18.98;7.53;;;19.10;99.90;;;;;;4995446;28;20178;-86
2023/07/13 04:13:58;;;;;;;10.75;6.80;;;19.20;99.90;;;;;;4995420;28;20178;-86
2023/07/13 04:16:25;;;;;;;11.75;6.85;;;19.30;99.90;;;;;;4996777;28;20188;-85
2023/07/13 04:18:54;;;;;;;11.63;6.78;;;19.30;99.90;;;;;;4996326;28;20546;-86
2023/07/13 04:21:20;;;;;;;12.68;7.28;;;19.40;99.90;;;;;;4998016;28;20205;-85
2023/07/13 04:23:46;;;;;;;11.30;7.20;;;19.40;99.90;;;;;;4997284;28;20300;-86
2023/07/13 04:26:12;;;;;;;12.30;7.43;;;19.50;99.90;;;;;;5013171;28;20186;-85
2023/07/13 04:28:38;;;;;;;11.95;7.32;;;19.60;99.90;;;;;;5012191;28;20166;-85
2023/07/13 04:31:04;;;;;;;9.73;7.65;;;19.70;99.90;;;;;;5002971;28;20269;-87
2023/07/13 04:33:29;;;;;;;12.90;6.72;;;19.70;99.90;;;;;;4995979;28;20685;-86
2023/07/13 04:35:57;;;;;;;11.52;7.75;;;19.70;99.90;;;;;;4995610;28;20569;-89
2023/07/13 04:38:29;;;;;;;10.77;7.65;;;19.80;99.90;;;;;;4995927;28;20213;-89
2023/07/13 04:41:00;;;;;;;11.73;7.65;;;19.80;99.90;;;;;;4997123;28;20174;-88
2023/07/13 04:43:27;;;;;;;12.10;7.63;;;19.90;99.90;;;;;;4997678;28;20235;-89
2023/07/13 04:45:53;;;;;;;10.85;7.90;;;20.00;99.90;;;;;;5001285;28;20232;-85
2023/07/13 04:48:20;;;;;;;11.40;8.13;;;20.00;99.90;;;;;;5005039;28;20253;-86
2023/07/13 04:50:46;;;;;;;15.85;9.70;;;20.10;99.90;;;;;;4999436;28;20169;-86
2023/07/13 04:53:12;;;;;;;15.75;9.02;;;20.10;99.90;;;;;;4980028;28;20194;-86
2023/07/13 04:55:38;;;;;;;18.50;8.15;;;20.10;99.90;;;;;;5000889;28;20193;-87
2023/07/13 04:58:04;;;;;;;12.13;8.57;;;20.20;99.90;;;;;;5002762;28;20186;-84
2023/07/13 05:00:30;;;;;;;11.32;7.68;;;20.20;99.90;;;;;;5003435;28;20188;-85
2023/07/13 05:02:57;;;;;;;12.68;8.60;;;20.20;99.90;;;;;;4995920;28;20273;-84
2023/07/13 05:05:26;;;;;;;15.63;9.52;;;20.20;99.90;;;;;;5011979;28;20202;-89
2023/07/13 05:07:53;;;;;;;13.90;8.80;;;20.30;99.90;;;;;;5026570;28;20247;-89
2023/07/13 05:10:19;;;;;;;13.07;8.82;;;20.30;99.90;;;;;;4993884;28;20257;-89
2023/07/13 05:12:45;;;;;;;14.18;8.77;;;20.40;99.90;;;;;;4994567;28;20361;-89
2023/07/13 05:15:11;;;;;;;12.40;8.95;;;20.50;99.90;;;;;;4995752;28;20261;-89
2023/07/13 05:17:38;;;;;;;13.27;10.45;;;20.50;99.90;;;;;;4994496;28;20416;-86
2023/07/13 05:20:05;;;;;;;9.50;6.93;;;20.50;99.90;;;;;;4978332;28;20174;-88
2023/07/13 05:22:31;;;;;;;10.73;7.78;;;20.60;99.90;;;;;;4977820;28;20228;-87
2023/07/13 05:24:56;;;;;;;12.13;8.00;;;20.70;99.90;;;;;;4975135;28;20698;-86
2023/07/13 05:27:23;;;;;;;12.52;8.88;;;20.70;99.90;;;;;;4988222;28;20570;-88
2023/07/13 05:29:49;;;;;;;12.48;9.45;;;20.70;99.90;;;;;;5008517;28;20189;-89
2023/07/13 05:32:15;;;;;;;14.38;8.80;;;20.70;99.90;;;;;;4993507;28;20185;-90
2023/07/13 05:34:41;;;;;;;16.55;9.75;;;20.70;99.90;;;;;;4993485;28;20236;-89
2023/07/13 05:37:07;;;;;;;14.23;8.88;;;20.80;99.90;;;;;;4991751;28;20204;-88
2023/07/13 05:39:33;;;;;;;13.80;9.43;;;;;;;;;;5025323;28;20189;-87
2023/07/13 05:41:59;;;;;;;12.68;8.85;;;20.80;99.90;;;;;;5025121;28;20197;-88
2023/07/13 05:44:25;;;;;;;14.05;8.30;;;20.70;99.90;;;;;;5021166;28;20690;-89
2023/07/13 05:46:51;;;;;;;10.38;7.50;;;;;;;;;;4998049;28;20202;-89
2023/07/13 05:49:16;;;;;;;12.77;7.47;;;21.00;99.90;;;;;;4978416;28;20210;-89
2023/07/13 05:51:42;;;;;;;14.30;7.30;;;20.90;99.90;;;;;;4996404;28;20191;-90
2023/07/13 05:54:08;;;;;;;8.65;6.85;;;20.90;99.90;;;;;;4984170;28;20182;-90
2023/07/13 05:56:33;;;;;;;10.27;7.20;;;20.90;99.90;;;;;;4988261;28;20269;-92
2023/07/13 05:58:59;;;;;;;12.38;7.55;;;20.70;99.90;;;;;;5003956;28;20197;-91
2023/07/13 06:01:25;;;;;;;16.90;8.52;;;20.60;99.90;;;;;;4970829;28;20212;-89
2023/07/13 06:03:50;;;;;;;12.20;8.27;;;20.60;99.90;;;;;;5009215;28;20552;-89
2023/07/13 06:06:17;;;;;;;15.35;10.00;;;20.60;99.90;;;;;;4971456;28;20268;-92
2023/07/13 06:08:43;;;;;;;17.13;11.10;;;;;;;;;;5003593;28;20549;-93
2023/07/13 06:11:23;;;;;;;13.30;8.77;;;20.80;99.90;;;;;;4988829;28;20556;-92
2023/07/13 06:13:50;;;;;;;12.35;8.60;;;;;;;;;;4995671;28;20185;-92
2023/07/13 06:16:16;;;;;;;13.00;9.48;;;21.00;99.90;;;;;;4992675;28;20238;-89
2023/07/13 06:18:43;;;;;;;11.95;9.13;;;;;;;;;;4991141;28;20193;-88
2023/07/13 06:21:13;;;;;;;13.32;10.50;;;21.30;99.90;;;;;;5007098;28;20212;-89
2023/07/13 06:23:39;;;;;;;12.95;8.30;;;21.40;99.90;;;;;;4991060;28;20289;-88
2023/07/13 06:26:07;;;;;;;17.30;8.90;;;21.40;99.90;;;;;;5024154;28;20657;-88
2023/07/13 06:28:34;;;;;;;11.95;9.25;;;21.40;99.90;;;;;;4992209;28;20621;-88
2023/07/13 06:31:01;;;;;;;17.75;9.65;;;21.50;99.90;;;;;;5007612;28;20197;-87
2023/07/13 06:33:30;;;;;;;14.27;8.77;;;21.60;99.90;;;;;;5024318;28;20205;-89
2023/07/13 06:35:56;;;;;;;13.48;8.68;;;;;;;;;;4979503;28;20209;-88
2023/07/13 06:38:22;;;;;;;18.83;8.75;;;21.70;99.90;;;;;;5007534;28;20631;-89
2023/07/13 06:40:48;;;;;;;14.82;9.80;;;21.80;99.90;;;;;;5007409;28;20249;-87
2023/07/13 06:43:13;;;;;;;15.48;9.45;;;21.80;99.90;;;;;;5013376;28;20217;-88
2023/07/13 06:45:47;;;;;;;11.55;8.90;;;21.80;99.90;;;;;;4988358;28;20181;-86
2023/07/13 06:48:13;;;;;;;15.40;9.07;;;21.80;99.90;;;;;;4992667;28;20216;-86
2023/07/13 06:50:39;;;;;;;14.10;9.95;;;21.80;99.90;;;;;;4991228;28;20198;-86
2023/07/13 06:53:04;;;;;;;15.38;9.85;;;21.80;99.90;;;;;;5008096;28;20217;-88
2023/07/13 06:55:30;;;;;;;14.48;10.02;;;21.80;99.90;;;;;;5025623;28;20178;-89
2023/07/13 06:57:56;;;;;;;12.25;9.23;;;;;;;;;;5025399;28;20639;-88
2023/07/13 07:00:23;;;;;;;13.48;9.30;;;22.00;99.90;;;;;;4993049;28;20186;-86
2023/07/13 07:02:49;;;;;;;15.40;9.45;;;22.10;99.90;;;;;;4993818;28;20178;-86
2023/07/13 07:05:15;;;;;;;14.57;9.35;;;22.10;99.90;;;;;;4992545;28;20689;-86
2023/07/13 07:07:40;;;;;;;10.57;8.18;;;22.20;99.90;;;;;;4993657;28;20520;-86
2023/07/13 07:10:07;;;;;;;14.27;8.77;;;22.20;99.90;;;;;;5007927;28;20957;-86
2023/07/13 07:12:33;;;;;;;11.77;8.27;;;;;;;;;;4993721;28;20177;-87
2023/07/13 07:14:59;;;;;;;12.48;8.02;;;22.30;99.90;;;;;;5007536;28;20204;-86
2023/07/13 07:17:25;;;;;;;11.15;7.50;;;22.40;99.90;;;;;;5008026;28;20622;-86
2023/07/13 07:19:53;;;;;;;14.63;8.15;;;22.40;99.90;;;;;;4991211;28;20186;-86
2023/07/13 07:22:20;;;;;;;16.75;8.77;;;22.50;99.90;;;;;;5023798;28;20174;-86
2023/07/13 07:24:45;;;;;;;11.13;7.97;;;22.60;99.90;;;;;;4992590;28;20217;-86
2023/07/13 07:27:11;;;;;;;9.93;8.15;;;22.60;99.90;;;;;;4992088;28;20697;-86
2023/07/13 07:29:37;;;;;;;12.05;7.97;;;22.70;99.90;;;;;;4993659;28;20206;-86
2023/07/13 07:32:03;;;;;;;13.68;8.07;;;22.80;99.90;;;;;;5009305;28;20688;-86
2023/07/13 07:34:29;;;;;;;15.35;7.78;;;;;;;;;;5012552;28;20236;-86
2023/07/13 07:36:54;;;;;;;12.77;8.18;;;22.70;99.90;;;;;;5012297;28;20182;-86
2023/07/13 07:39:20;;;;;;;13.18;9.30;;;22.70;99.90;;;;;;5012764;28;20186;-86
2023/07/13 07:41:46;;;;;;;17.65;9.93;;;22.50;99.90;;;;;;5028775;28;20257;-86
2023/07/13 07:44:11;;;;;;;14.10;8.38;;;22.40;99.90;;;;;;5011759;28;20617;-86
2023/07/13 07:46:40;;;;;;;12.77;8.88;;;22.30;99.90;;;;;;4996091;28;20173;-86
2023/07/13 07:49:05;;;;;;;15.25;8.90;;;22.20;99.90;;;;;;4997098;28;20178;-86
2023/07/13 07:51:32;;;;;;;14.70;8.75;;;;;;;;;;5028616;28;20229;-86
2023/07/13 07:53:57;;;;;;;14.88;9.27;;;22.10;99.90;;;;;;4996979;28;20213;-86
2023/07/13 07:56:23;;;;;;;16.55;9.48;;;22.00;99.90;;;;;;5029266;28;20217;-86
2023/07/13 07:58:48;;;;;;;17.48;9.57;;;22.10;99.90;;;;;;5028888;28;20185;-86
2023/07/13 08:01:15;;;;;;;21.33;9.77;;;22.00;99.90;;;;;;4996839;28;20180;-86
2023/07/13 08:03:41;;;;;;;15.02;9.60;;;21.90;99.90;;;;;;5011656;28;20209;-86
2023/07/13 08:06:07;;;;;;;17.42;9.23;;;;;;;;;;4996409;28;20201;-86
2023/07/13 08:08:34;;;;;;;13.82;8.48;;;21.90;99.90;;;;;;5012140;28;20201;-86
2023/07/13 08:11:03;;;;;;;14.13;9.52;;;22.00;99.90;;;;;;4996443;28;20188;-86
2023/07/13 08:13:29;;;;;;;12.45;8.68;;;21.90;99.90;;;;;;4996990;28;20182;-86
2023/07/13 08:15:54;;;;;;;15.35;8.98;;;22.00;99.90;;;;;;5028401;28;20631;-86
2023/07/13 08:18:21;;;;;;;12.93;9.18;;;;;;;;;;5011385;28;20547;-86
2023/07/13 08:20:46;;;;;;;13.35;9.43;;;21.90;99.90;;;;;;5011422;28;20189;-86
2023/07/13 08:23:12;;;;;;;14.77;9.50;;;21.80;99.90;;;;;;5011486;28;20181;-86
2023/07/13 08:25:38;;;;;;;11.13;8.18;;;21.90;99.90;;;;;;4996645;28;20236;-86
2023/07/13 08:28:04;;;;;;;10.48;7.72;;;21.90;99.90;;;;;;4996274;28;20186;-86
2023/07/13 08:30:30;;;;;;;15.73;10.00;;;;;;;;;;5011963;28;20174;-87
2023/07/13 08:32:56;;;;;;;13.38;9.20;;;;;;;;;;4994993;28;20189;-86
2023/07/13 08:35:22;;;;;;;14.10;9.13;;;;;;;;;;4994937;28;20193;-86
2023/07/13 08:37:48;;;;;;;15.13;9.05;;;21.90;99.90;;;;;;5027881;28;20181;-86
2023/07/13 08:40:14;;;;;;;13.52;9.95;;;22.10;99.90;;;;;;5011095;28;20189;-86
2023/07/13 08:42:53;;;;;;;13.02;9.20;;;22.00;99.90;;;;;;5011318;28;20185;-86
2023/07/13 08:45:24;;;;;;;14.77;8.48;;;22.10;99.90;;;;;;4994940;28;20252;-86
2023/07/13 08:48:08;;;;;;;16.05;9.05;;;22.20;99.90;;;;;;4996585;28;20627;-87
2023/07/13 08:50:48;;;;;;;12.85;9.30;;;22.20;99.90;;;;;;4995247;28;20182;-87
2023/07/13 08:53:15;;;;;;;14.00;9.90;;;22.20;99.90;;;;;;5027612;28;20185;-87
2023/07/13 08:55:41;;;;;;;13.35;9.77;;;22.20;99.90;;;;;;5011004;28;20590;-86
2023/07/13 08:58:15;;;;;;;14.88;9.85;;;22.20;99.90;;;;;;5027344;28;20181;-86
2023/07/13 09:00:44;;;;;;;18.50;11.27;;;22.20;99.90;;;;;;4995728;28;20174;-86
2023/07/13 09:03:22;;;;;;;13.13;9.45;;;22.20;99.90;;;;;;5001203;28;20190;-88
2023/07/13 09:05:54;;;;;;;14.32;9.30;;;22.20;99.90;;;;;;4992675;28;20181;-86
2023/07/13 09:08:39;;;;;;;13.07;9.35;;;22.30;99.90;;;;;;5001815;28;20186;-87
2023/07/13 09:11:22;;;;;;;14.95;9.25;;;22.40;99.90;;;;;;5001861;28;20241;-87
2023/07/13 09:14:02;;;;;;;11.27;8.55;;;22.40;99.90;;;;;;5002932;28;20181;-87
2023/07/13 09:16:28;;;;;;;14.98;9.10;;;22.50;99.90;;;;;;5029817;28;20204;-87
2023/07/13 09:18:59;;;;;;;16.75;9.60;;;22.60;99.90;;;;;;4986059;28;20642;-87
2023/07/13 09:21:30;;;;;;;13.93;9.25;;;22.50;99.90;;;;;;5009254;28;20185;-88
2023/07/13 09:24:01;;;;;;;12.60;9.68;;;22.60;99.90;;;;;;5011856;28;20209;-88
2023/07/13 09:26:30;;;;;;;13.48;9.38;;;22.60;99.90;;;;;;5007257;28;20212;-88
2023/07/13 09:29:11;;;;;;;16.45;9.15;;;22.80;99.90;;;;;;5007678;28;20579;-88
2023/07/13 09:31:45;;;;;;;12.50;9.35;;;22.70;99.90;;;;;;4994528;28;20182;-87
2023/07/13 09:34:12;;;;;;;12.68;9.88;;;22.70;99.90;;;;;;5003122;28;20185;-87
2023/07/13 09:36:39;;;;;;;12.55;9.52;;;;;;;;;;5011046;28;20178;-86
2023/07/13 09:39:07;;;;;;;15.70;8.95;;;22.60;99.90;;;;;;5002069;28;20174;-86
2023/07/13 09:41:51;;;;;;;10.32;8.20;;;22.60;99.90;;;;;;4991784;28;20189;-86
2023/07/13 09:44:27;;;;;;;11.40;8.40;;;22.50;99.90;;;;;;5007723;28;20326;-87
2023/07/13 09:46:54;;;;;;;14.77;9.40;;;22.60;99.90;;;;;;4999623;28;20177;-87
2023/07/13 09:49:25;;;;;;;13.23;7.80;;;22.60;99.90;;;;;;4979633;28;20173;-87
2023/07/13 09:52:05;;;;;;;9.70;5.85;;;22.70;99.90;;;;;;4994666;28;20180;-87
2023/07/13 09:54:34;;;;;;;10.48;6.13;;;22.80;99.90;;;;;;5004595;28;20252;-86
2023/07/13 09:57:01;;;;;;;9.85;6.90;;;22.70;99.90;;;;;;4981586;28;20204;-86
2023/07/13 09:59:40;;;;;;;11.10;6.22;;;22.90;99.90;;;;;;5003313;28;20180;-86
2023/07/13 10:02:30;;;;;;;10.48;6.75;;;22.90;99.90;;;;;;4996850;28;20182;-86
2023/07/13 10:05:00;;;;;;;13.07;5.95;;;23.00;99.90;;;;;;4997800;28;20205;-86
2023/07/13 10:07:27;;;;;;;7.57;5.65;;;23.40;99.90;;;;;;5001349;28;20184;-86
2023/07/13 10:09:56;;;;;;;7.43;5.30;;;23.50;99.90;;;;;;4985816;28;20181;-86
2023/07/13 10:12:25;;;;;;;6.55;5.20;;;23.40;99.90;;;;;;4980626;28;20190;-86
2023/07/13 10:14:55;;;;;;;10.48;7.05;;;23.40;99.90;;;;;;5008423;28;20185;-86
2023/07/13 10:17:33;;;;;;;10.75;5.93;;;23.40;99.90;;;;;;5011769;28;20586;-86
2023/07/13 10:20:04;;;;;;;6.63;5.28;;;23.40;99.90;;;;;;5007408;28;20261;-86
2023/07/13 10:22:39;;;;;;;9.80;6.72;;;23.40;99.90;;;;;;5001382;28;20190;-86
2023/07/13 10:25:25;;;;;;;10.10;6.90;;;23.40;99.90;;;;;;5010406;28;20204;-86
2023/07/13 10:27:56;;;;;;;14.50;7.05;;;23.40;99.90;;;;;;4995883;28;20181;-86
2023/07/13 10:30:22;;;;;;;9.38;5.97;;;;;;;;;;4992407;28;20184;-84
2023/07/13 10:32:50;;;;;;;7.45;5.72;;;23.30;99.90;;;;;;4993738;28;20236;-86
2023/07/13 10:35:19;;;;;;;6.63;5.20;;;23.40;99.90;;;;;;4992420;28;20531;-84
2023/07/13 10:38:06;;;;;;;11.85;6.20;;;24.00;99.90;;;;;;4992277;28;20197;-86
2023/07/13 10:40:47;;;;;;;7.00;5.82;;;23.30;99.90;;;;;;4993679;28;20256;-85
2023/07/13 10:43:32;;;;;;;7.40;5.68;;;23.30;99.90;;;;;;4992385;28;20182;-85
2023/07/13 10:46:00;;;;;;;9.70;7.15;;;23.40;99.90;;;;;;4993800;28;20189;-86
2023/07/13 10:48:26;;;;;;;9.30;6.60;;;;;;;;;;4991902;28;20211;-86
2023/07/13 10:50:55;;;;;;;7.28;5.85;;;23.40;99.90;;;;;;4993290;28;20276;-86
2023/07/13 10:53:30;;;;;;;9.60;6.43;;;23.40;99.90;;;;;;4976375;28;20182;-86
2023/07/13 10:56:02;;;;;;;10.80;5.97;;;23.50;99.90;;;;;;4992019;28;20181;-86
2023/07/13 10:58:41;;;;;;;7.80;6.00;;;23.50;99.90;;;;;;4991929;28;20177;-86
2023/07/13 11:01:16;;;;;;;9.32;5.57;;;23.40;99.90;;;;;;4992075;28;20185;-86
2023/07/13 11:03:56;;;;;;;7.60;5.65;;;23.50;99.90;;;;;;4991536;28;20278;-86
2023/07/13 11:06:31;;;;;;;8.55;6.30;;;23.40;99.90;;;;;;4991876;28;20642;-86
2023/07/13 11:09:32;;;;;;;8.30;5.90;;;23.30;99.90;;;;;;4991971;28;20279;-85
2023/07/13 11:12:21;;;;;;;7.00;6.07;;;23.30;99.90;;;;;;4992856;28;20196;-85
2023/07/13 11:14:57;;;;;;;10.35;5.93;;;23.30;99.90;;;;;;4991321;28;20299;-86
2023/07/13 11:17:32;;;;;;;7.07;5.47;;;23.20;99.90;;;;;;4991860;28;20637;-86
2023/07/13 11:20:13;;;;;;;8.15;5.28;;;23.20;99.90;;;;;;4992102;28;20200;-86
2023/07/13 11:22:47;;;;;;;10.43;6.05;;;23.30;99.90;;;;;;4991906;28;20182;-86
2023/07/13 11:25:34;;;;;;;6.88;5.63;;;23.30;99.90;;;;;;4991965;28;20232;-87
2023/07/13 11:28:11;;;;;;;9.20;5.80;;;23.30;99.90;;;;;;4992142;28;20170;-86
2023/07/13 11:30:40;;;;;;;6.95;5.32;;;23.40;99.90;;;;;;4994107;28;20181;-88
2023/07/13 11:33:23;;;;;;;6.95;5.18;;;23.40;99.90;;;;;;4993228;28;20175;-87
2023/07/13 11:35:52;;;;;;;9.45;5.57;;;23.50;99.90;;;;;;4991727;28;20181;-87
2023/07/13 11:38:39;;;;;;;9.82;6.50;;;23.70;99.90;;;;;;4991771;28;20201;-87
2023/07/13 11:41:14;;;;;;;7.13;5.35;;;24.00;99.90;;;;;;4992949;28;20277;-87
2023/07/13 11:43:41;;;;;;;7.30;5.65;;;;;;;;;;4991411;28;20251;-87
2023/07/13 11:46:22;;;;;;;7.45;5.50;;;24.10;99.90;;;;;;4991863;28;20186;-86
2023/07/13 11:48:49;;;;;;;8.63;5.30;;;23.80;99.90;;;;;;4992783;28;20174;-87
2023/07/13 11:51:19;;;;;;;9.75;5.72;;;24.20;99.90;;;;;;4975738;28;20194;-87
2023/07/13 11:53:48;;;;;;;6.57;5.07;;;24.20;99.90;;;;;;4991475;28;20182;-87
2023/07/13 11:56:14;;;;;;;8.43;6.13;;;24.20;99.90;;;;;;4991791;28;20182;-86
2023/07/13 11:58:41;;;;;;;10.35;7.10;;;;;;;;;;4991190;28;20185;-86
2023/07/13 12:01:17;;;;;;;9.55;5.38;;;24.20;99.90;;;;;;4991792;28;20653;-87
2023/07/13 12:03:45;;;;;;;5.43;4.60;;;;;;;;;;4976234;28;20213;-86
2023/07/13 12:06:24;;;;;;;6.47;4.90;;;24.20;99.90;;;;;;4992219;28;20189;-86
2023/07/13 12:08:50;;;;;;;6.43;5.05;;;24.20;99.90;;;;;;4988339;28;20197;-85
2023/07/13 12:11:17;;;;;;;7.53;4.95;;;24.10;99.90;;;;;;4979246;28;20252;-85
2023/07/13 12:13:44;;;;;;;7.90;4.90;;;24.00;99.90;;;;;;4990472;28;20197;-85
2023/07/13 12:16:20;;;;;;;5.68;4.47;;;24.10;99.90;;;;;;4974727;28;20182;-86
2023/07/13 12:18:46;;;;;;;7.97;5.15;;;;;;;;;;4991055;28;20272;-87
2023/07/13 12:21:16;;;;;;;10.52;5.97;;;24.10;99.90;;;;;;4994676;28;20638;-86
2023/07/13 12:23:44;;;;;;;8.88;5.75;;;24.10;99.90;;;;;;4993710;28;20577;-86
2023/07/13 12:26:12;;;;;;;7.80;5.07;;;24.10;99.90;;;;;;4991724;28;20181;-86
2023/07/13 12:28:54;;;;;;;8.15;4.47;;;24.00;99.90;;;;;;4995196;28;20170;-86
2023/07/13 12:31:46;;;;;;;5.88;5.00;;;24.00;99.90;;;;;;4994652;28;20598;-87
2023/07/13 12:34:13;;;;;;;8.10;5.05;;;24.10;99.90;;;;;;4993349;28;20209;-86
2023/07/13 12:36:49;;;;;;;6.45;4.75;;;24.00;99.90;;;;;;4994269;28;20178;-86
2023/07/13 12:39:21;;;;;;;7.15;5.47;;;24.00;99.90;;;;;;4992534;28;20185;-87
2023/07/13 12:41:51;;;;;;;8.75;5.50;;;24.10;99.90;;;;;;4994309;28;20186;-87
2023/07/13 12:44:26;;;;;;;6.22;5.10;;;24.00;99.90;;;;;;4993966;28;20232;-87
2023/07/13 12:46:55;;;;;;;8.15;5.30;;;24.00;99.90;;;;;;4991883;28;20185;-87
2023/07/13 12:49:34;;;;;;;9.20;5.22;;;24.10;99.90;;;;;;4994483;28;20188;-87
2023/07/13 12:52:02;;;;;;;7.32;4.90;;;24.00;99.90;;;;;;4991737;28;20654;-86
2023/07/13 12:54:30;;;;;;;8.73;5.63;;;24.00;99.90;;;;;;4995238;28;20197;-87
2023/07/13 12:56:58;;;;;;;5.70;4.75;;;24.00;99.90;;;;;;4977501;28;20659;-87